KBAD/BAD METAR and TAF weather

Enter ICAO airport designator
Station Type Date Time Source
KBAD METAR 2020/01/21 20:56 UTC NOAA

KBAD 212056Z AUTO 08003KT 10SM CLR 09/M03 A3048 RMK AO2 SLPNO T00881028 $


Station Type Date Time Source
KBAD Decoded METAR 2020/01/21 20:56 UTC NOAA

Barksdale Air Force Base, LA, United States (KBAD) 32-30N 093-40W
Jan 21, 2020 - 03:56 PM EST / 2020.01.21 2056 UTC
Wind: from the E (080 degrees) at 3 MPH (3 KT):0
Visibility: 10 mile(s):0
Sky conditions: clear
Temperature: 47.8 F (8.8 C)
Dew Point: 27.0 F (-2.8 C)
Relative Humidity: 43%
Pressure (altimeter): 30.48 in. Hg (1032 hPa)
ob: KBAD 212056Z AUTO 08003KT 10SM CLR 09/M03 A3048 RMK AO2 SLPNO T00881028
cycle: 21

Station Type Date Time Source
KBAD TAF 2020/01/21 18:33 UTC NOAA

TAF TAF COR KBAD 212025Z 2118/2224 07007KT 9999 OVC250 QNH3030INS
BECMG 2214/2215 11010KT 9999 VCSH OVC080 QNH3021INS
BECMG 2217/2218 12012KT 9999 -RA OVC015 QNH3006INS
BECMG 2220/2221 13014KT 8000 RA BR OVC003 QNH3006INS TX08/2121Z TNM01/2213Z

Example: see airport list